Sumisemaru No.5 — JE3162 — position and weather

sailwx.info

Track history (hours):
 
Tides and Currents Weather Stations Pressure Air Temp Water Temp Dewpoint Dewpoint Depression Visibility Wind Speed Wind Dir Waves Ship Positions

Sumisemaru No.5

Last reported at 2016-Jul-23 04:33 UTC. Time now 2016-Jul-30 09:10 UTC.
Position N 35°23' E 139°42'.

Length 96 m; draft 5.3 m.

Type: Cargo ship. MMSI: 431700423.

Date/timePositionNaut miles runAvg speedWind from/ knotsBaromVisibWave heightAir tempDewpointWater temp
2016-Jul-23 04:33N 35°23' E 139°42'6 6.2
2016-Jul-23 03:33N 35°29' E 139°40'0 0.0
2016-Jul-23 02:33N 35°29' E 139°40'0 0.0
2016-Jul-23 01:33N 35°29' E 139°40'0 0.0
2016-Jul-23 00:33N 35°29' E 139°40'0 0.0
2016-Jul-22 23:33N 35°29' E 139°40'0 0.0
2016-Jul-22 22:33N 35°29' E 139°40'0 0.0
2016-Jul-22 21:33N 35°29' E 139°40'0 0.0
2016-Jul-22 20:33N 35°29' E 139°40'0 0.0
2016-Jul-22 19:33N 35°29' E 139°40'0 0.0
2016-Jul-22 18:33N 35°29' E 139°40'0 0.0
2016-Jul-22 17:33N 35°29' E 139°40'0 0.0
2016-Jul-22 16:30N 35°29' E 139°40'0 0.0
2016-Jul-22 15:33N 35°29' E 139°40'0 0.0
2016-Jul-22 14:33N 35°29' E 139°40'0 0.0
2016-Jul-22 13:33N 35°29' E 139°40'0 0.0
2016-Jul-22 12:33N 35°29' E 139°40'0 0.0
2016-Jul-22 11:30N 35°29' E 139°40'0 0.0
2016-Jul-22 10:33N 35°29' E 139°40'0 0.0
2016-Jul-22 09:33N 35°29' E 139°40'0 0.0
2016-Jul-22 08:33N 35°29' E 139°40'0 0.0
2016-Jul-22 07:33N 35°29' E 139°40'0 0.0
2016-Jul-22 05:33N 35°29' E 139°40'0 0.0
2016-Jul-22 04:33N 35°29' E 139°40'0 0.0
2016-Jul-22 03:33N 35°29' E 139°40'2 2.3
2016-Jul-22 02:33N 35°27' E 139°41'1 1.4
2016-Jul-22 01:33N 35°25' E 139°42'0 0.0
2016-Jul-22 00:33N 35°25' E 139°42'0 0.0
2016-Jul-21 23:33N 35°25' E 139°42'5 5.4
2016-Jul-21 22:33N 35°20' E 139°43'1110.9
2016-Jul-21 21:33N 35°09' E 139°46'24 7.7
2016-Jul-21 18:26N 34°58' E 140°12'  
Track history (hours):
 
Tides and Currents Weather Stations Pressure Air Temp Water Temp Dewpoint Dewpoint Depression Visibility Wind Speed Wind Dir Waves Ship Positions

Sumisemaru No.5

Last reported at 2016-Jul-23 04:33 UTC. Time now 2016-Jul-30 09:10 UTC.
Position N 35°23' E 139°42'.

Length 96 m; draft 5.3 m.

Type: Cargo ship. MMSI: 431700423.

Date/timePositionNaut miles runAvg speedWind from/ knotsBaromVisibWave heightAir tempDewpointWater temp
2016-Jul-23 04:33N 35°23' E 139°42'6 6.2
2016-Jul-23 03:33N 35°29' E 139°40'0 0.0
2016-Jul-23 02:33N 35°29' E 139°40'0 0.0
2016-Jul-23 01:33N 35°29' E 139°40'0 0.0
2016-Jul-23 00:33N 35°29' E 139°40'0 0.0
2016-Jul-22 23:33N 35°29' E 139°40'0 0.0
2016-Jul-22 22:33N 35°29' E 139°40'0 0.0
2016-Jul-22 21:33N 35°29' E 139°40'0 0.0
2016-Jul-22 20:33N 35°29' E 139°40'0 0.0
2016-Jul-22 19:33N 35°29' E 139°40'0 0.0
2016-Jul-22 18:33N 35°29' E 139°40'0 0.0
2016-Jul-22 17:33N 35°29' E 139°40'0 0.0
2016-Jul-22 16:30N 35°29' E 139°40'0 0.0
2016-Jul-22 15:33N 35°29' E 139°40'0 0.0
2016-Jul-22 14:33N 35°29' E 139°40'0 0.0
2016-Jul-22 13:33N 35°29' E 139°40'0 0.0
2016-Jul-22 12:33N 35°29' E 139°40'0 0.0
2016-Jul-22 11:30N 35°29' E 139°40'0 0.0
2016-Jul-22 10:33N 35°29' E 139°40'0 0.0
2016-Jul-22 09:33N 35°29' E 139°40'0 0.0
2016-Jul-22 08:33N 35°29' E 139°40'0 0.0
2016-Jul-22 07:33N 35°29' E 139°40'0 0.0
2016-Jul-22 05:33N 35°29' E 139°40'0 0.0
2016-Jul-22 04:33N 35°29' E 139°40'0 0.0
2016-Jul-22 03:33N 35°29' E 139°40'2 2.3
2016-Jul-22 02:33N 35°27' E 139°41'1 1.4
2016-Jul-22 01:33N 35°25' E 139°42'0 0.0
2016-Jul-22 00:33N 35°25' E 139°42'0 0.0
2016-Jul-21 23:33N 35°25' E 139°42'5 5.4
2016-Jul-21 22:33N 35°20' E 139°43'1110.9
2016-Jul-21 21:33N 35°09' E 139°46'24 7.7
2016-Jul-21 18:26N 34°58' E 140°12'  

Dump ship's entire track history